createdAt,value
2018-09-28T03:14:00.228Z,13.63
2018-09-28T03:16:40.403Z,12.43
2018-09-28T03:19:10.605Z,13.00
2018-09-28T03:21:45.337Z,14.20
2018-09-28T04:21:17.834Z,14.60
2018-09-28T04:31:44.944Z,13.27
2018-09-28T04:34:15.343Z,15.30
2018-09-28T04:36:45.930Z,14.57
2018-09-28T04:39:17.053Z,15.23
2018-09-28T04:41:47.516Z,16.00
2018-09-28T04:44:17.868Z,16.53
2018-09-28T04:46:48.448Z,16.07
2018-09-28T04:49:18.893Z,15.63
2018-09-28T04:51:49.214Z,16.70
2018-09-28T04:54:19.672Z,14.90
2018-09-28T04:56:50.067Z,16.63
2018-09-28T04:59:20.393Z,15.47
2018-09-28T05:01:50.680Z,15.53
2018-09-28T05:04:21.036Z,14.90
2018-09-28T05:06:52.240Z,15.57
2018-09-28T05:09:22.720Z,16.53
2018-09-28T05:11:53.026Z,16.77
2018-09-28T05:14:23.431Z,18.33
2018-09-28T05:16:53.858Z,17.13
2018-09-28T05:19:24.386Z,18.17
2018-09-28T05:21:54.847Z,18.17
2018-09-28T05:24:25.231Z,18.33
2018-09-28T05:26:55.652Z,19.80
2018-09-28T05:29:26.076Z,19.57
2018-09-28T05:31:56.653Z,19.60
2018-09-28T05:34:27.025Z,18.40
2018-09-28T05:36:57.292Z,18.67
2018-09-28T05:39:27.706Z,18.03
2018-09-28T05:41:58.071Z,18.37
2018-09-28T05:44:28.457Z,18.27
2018-09-28T05:46:58.902Z,19.03
2018-09-28T05:49:29.304Z,18.47
2018-09-28T05:51:59.711Z,18.73
2018-09-28T05:54:30.091Z,18.80
2018-09-28T05:57:00.512Z,18.53
2018-09-28T05:59:35.791Z,18.27
2018-09-28T06:02:11.167Z,17.67
2018-09-28T06:04:46.615Z,19.97
2018-09-28T06:07:16.972Z,18.87
2018-09-28T06:09:47.304Z,17.20
2018-09-28T06:12:17.792Z,18.37
2018-09-28T06:14:48.264Z,18.90
2018-09-28T06:17:18.658Z,18.47
2018-09-28T06:19:49.063Z,18.17
2018-09-28T06:22:19.476Z,18.87
2018-09-28T06:24:49.841Z,19.23
2018-09-28T06:27:20.225Z,19.10
2018-09-28T06:29:50.573Z,16.60
2018-09-28T06:32:21.101Z,16.03
2018-09-28T06:34:51.659Z,15.03
2018-09-28T06:37:22.223Z,13.43
2018-09-28T06:39:52.951Z,12.73
2018-09-28T06:42:23.607Z,12.20
2018-09-28T06:44:54.008Z,10.63
2018-09-28T06:47:27.004Z,9.63
2018-09-28T06:49:59.248Z,9.67
2018-09-28T06:52:29.703Z,8.90
2018-09-28T06:55:00.205Z,7.20
2018-09-28T06:57:31.709Z,5.50
2018-09-28T07:00:02.205Z,4.93
2018-09-28T07:02:32.544Z,3.83
2018-09-28T07:05:03.173Z,3.47
2018-09-28T07:07:33.654Z,3.80
2018-09-28T07:10:04.136Z,3.87
2018-09-28T07:12:34.550Z,3.53
2018-09-28T07:15:05.307Z,3.20
2018-09-28T07:17:35.686Z,3.33
2018-09-28T07:20:12.576Z,3.47
2018-09-28T07:22:42.945Z,3.00
2018-09-28T07:25:13.310Z,3.07
2018-09-28T07:27:43.564Z,3.07
2018-09-28T07:30:13.907Z,2.57
2018-09-28T07:32:44.388Z,2.67
2018-09-28T07:35:14.791Z,3.00
2018-09-28T07:37:45.250Z,2.77
2018-09-28T07:40:15.640Z,2.90
2018-09-28T07:42:46.021Z,2.47
2018-09-28T07:45:16.316Z,2.73
2018-09-28T07:47:46.781Z,2.30
2018-09-28T07:50:17.008Z,2.80
2018-09-28T07:52:47.309Z,2.80
2018-09-28T07:55:17.632Z,2.23
2018-09-28T07:57:47.970Z,2.17
2018-09-28T08:00:18.324Z,2.00
2018-09-28T08:02:48.666Z,2.03
2018-09-28T08:05:19.268Z,1.90
2018-09-28T08:07:49.586Z,1.93
2018-09-28T08:10:20.076Z,2.03
2018-09-28T08:12:50.729Z,2.23
2018-09-28T08:15:21.165Z,1.63
2018-09-28T08:17:51.696Z,1.90
2018-09-28T08:20:22.021Z,1.90
2018-09-28T08:22:53.752Z,1.43
2018-09-28T08:25:24.098Z,1.80
2018-09-28T08:27:54.478Z,2.20
2018-09-28T08:30:24.971Z,2.07
2018-09-28T08:32:55.460Z,1.97
2018-09-28T08:35:25.740Z,1.93
2018-09-28T08:37:56.292Z,1.83
2018-09-28T08:40:26.762Z,1.90
2018-09-28T08:42:59.415Z,2.40
2018-09-28T08:45:29.832Z,1.93
2018-09-28T08:48:00.262Z,1.67
2018-09-28T08:50:30.651Z,2.33
2018-09-28T08:53:01.144Z,1.80
2018-09-28T08:55:31.821Z,2.00
2018-09-28T08:58:02.237Z,1.90
2018-09-28T09:00:32.649Z,1.87
2018-09-28T09:03:06.121Z,2.50
2018-09-28T09:05:36.659Z,1.73
2018-09-28T09:08:07.351Z,1.50
2018-09-28T09:10:37.688Z,2.30
2018-09-28T09:13:09.283Z,2.47
2018-09-28T09:15:39.789Z,1.83
2018-09-28T09:18:10.490Z,2.00
2018-09-28T09:20:40.808Z,1.90
2018-09-28T09:23:11.242Z,2.00
2018-09-28T09:25:41.676Z,2.17
2018-09-28T09:28:12.144Z,1.80
2018-09-28T09:30:42.634Z,2.10
2018-09-28T09:33:13.052Z,1.97
2018-09-28T09:35:43.536Z,2.00
2018-09-28T09:38:14.217Z,1.93
2018-09-28T09:40:44.656Z,1.67
2018-09-28T09:43:15.498Z,2.03
2018-09-28T09:45:46.193Z,1.90
2018-09-28T09:48:16.902Z,2.50
2018-09-28T09:50:47.876Z,1.40
2018-09-28T09:53:19.017Z,1.63
2018-09-28T09:55:49.460Z,1.57
2018-09-28T09:58:19.873Z,1.40
2018-09-28T10:00:55.417Z,2.07
2018-09-28T10:03:30.628Z,1.87
2018-09-28T10:06:01.105Z,1.90
2018-09-28T10:08:31.673Z,2.40
2018-09-28T10:11:01.974Z,3.17
2018-09-28T10:13:32.789Z,1.90
2018-09-28T10:16:03.306Z,2.13
2018-09-28T10:18:33.842Z,2.67
2018-09-28T10:21:04.129Z,1.53
2018-09-28T10:23:34.517Z,1.70
2018-09-28T10:26:04.920Z,1.77
2018-09-28T10:28:35.395Z,1.70
2018-09-28T10:31:05.772Z,2.40
2018-09-28T10:33:42.903Z,2.30
2018-09-28T10:36:13.270Z,1.77
2018-09-28T10:38:46.001Z,1.83
2018-09-28T10:41:16.517Z,2.27
2018-09-28T10:43:46.803Z,1.90
2018-09-28T10:46:17.166Z,1.90
2018-09-28T10:48:47.620Z,2.37
2018-09-28T10:51:17.912Z,2.17
2018-09-28T10:53:48.401Z,2.13
2018-09-28T10:56:18.740Z,1.60
2018-09-28T10:58:49.177Z,1.73
2018-09-28T11:01:19.532Z,2.10
2018-09-28T11:03:49.977Z,2.13
2018-09-28T11:06:20.208Z,2.10
2018-09-28T11:08:50.866Z,1.97
2018-09-28T11:11:21.320Z,1.97
2018-09-28T11:13:51.791Z,2.13
2018-09-28T11:16:22.185Z,1.70
2018-09-28T11:18:52.728Z,1.90
2018-09-28T11:21:23.274Z,2.30
2018-09-28T11:23:53.680Z,1.93
2018-09-28T11:26:24.113Z,1.77
2018-09-28T11:28:54.514Z,1.70
2018-09-28T11:31:24.913Z,1.30
2018-09-28T11:33:56.904Z,1.50
2018-09-28T11:36:27.292Z,1.30
2018-09-28T11:39:00.625Z,1.37
2018-09-28T11:41:32.138Z,1.60
2018-09-28T11:44:02.616Z,1.80
2018-09-28T11:46:33.039Z,1.50
2018-09-28T11:49:04.517Z,1.67
2018-09-28T11:51:35.052Z,1.60
2018-09-28T11:54:06.764Z,1.50
2018-09-28T11:56:37.073Z,1.50
2018-09-28T11:59:07.703Z,1.93
2018-09-28T12:01:37.956Z,1.60
2018-09-28T12:04:08.588Z,2.23
2018-09-28T12:06:39.128Z,1.67
2018-09-28T12:09:12.489Z,1.90
2018-09-28T12:11:45.711Z,1.57
2018-09-28T12:14:16.120Z,1.60
2018-09-28T12:16:46.528Z,1.60
2018-09-28T12:19:18.915Z,1.70
2018-09-28T12:22:04.555Z,1.77
2018-09-28T12:24:35.009Z,1.60
2018-09-28T12:27:05.261Z,1.67
2018-09-28T12:29:35.624Z,1.70
2018-09-28T12:32:06.376Z,1.07
2018-09-28T12:34:36.789Z,1.30
2018-09-28T12:37:07.184Z,1.33
2018-09-28T12:39:37.675Z,1.40
2018-09-28T12:42:08.334Z,1.33
2018-09-28T12:44:38.740Z,1.27
2018-09-28T12:47:09.184Z,1.33
2018-09-28T12:49:39.735Z,1.80
2018-09-28T12:52:10.251Z,1.90
2018-09-28T12:54:40.588Z,1.57
2018-09-28T12:57:10.874Z,1.30
2018-09-28T12:59:41.473Z,1.37
2018-09-28T13:02:11.760Z,1.60
2018-09-28T13:04:42.165Z,1.27
2018-09-28T13:07:13.532Z,1.43
2018-09-28T13:09:44.032Z,1.57
2018-09-28T13:12:14.647Z,1.27
2018-09-28T13:14:45.207Z,1.10
2018-09-28T13:17:15.677Z,1.47
2018-09-28T13:19:46.132Z,1.80
2018-09-28T13:22:16.502Z,1.73
2018-09-28T13:24:46.987Z,1.47
2018-09-28T13:27:18.413Z,1.53
2018-09-28T13:29:48.961Z,1.57
2018-09-28T13:32:19.482Z,1.70
2018-09-28T13:34:49.897Z,1.57
2018-09-28T13:37:21.320Z,4.93
2018-09-28T13:39:51.893Z,1.50
2018-09-28T13:42:22.333Z,1.50
2018-09-28T13:44:53.214Z,1.23
2018-09-28T13:47:24.112Z,1.30
2018-09-28T13:49:54.604Z,0.90
2018-09-28T13:52:25.127Z,1.40
2018-09-28T13:54:55.481Z,1.30
2018-09-28T13:57:26.081Z,1.03
2018-09-28T13:59:56.544Z,1.40
2018-09-28T14:02:26.849Z,1.83
2018-09-28T14:04:58.080Z,1.20
2018-09-28T14:07:28.951Z,1.50
2018-09-28T14:09:59.444Z,1.70
2018-09-28T14:12:30.186Z,1.80
2018-09-28T14:15:00.790Z,1.53
2018-09-28T14:17:31.533Z,1.83
2018-09-28T14:20:01.955Z,1.50
2018-09-28T14:22:35.875Z,1.53
2018-09-28T14:25:06.714Z,1.40
2018-09-28T14:27:37.099Z,1.37
2018-09-28T14:30:07.762Z,1.67
2018-09-28T14:32:38.300Z,1.40
2018-09-28T14:35:08.790Z,1.20
2018-09-28T14:37:39.320Z,1.40
2018-09-28T14:40:13.087Z,1.37
2018-09-28T14:42:43.867Z,1.37
2018-09-28T14:45:14.575Z,1.07
2018-09-28T14:47:45.297Z,0.97
2018-09-28T14:50:16.515Z,1.10
2018-09-28T14:52:55.184Z,1.37
2018-09-28T14:55:26.602Z,1.20
2018-09-28T14:57:58.013Z,1.17
2018-09-28T15:00:31.206Z,1.33
2018-09-28T15:03:02.494Z,1.27
2018-09-28T15:05:33.031Z,1.50
2018-09-28T15:08:03.349Z,1.40
2018-09-28T15:10:34.060Z,1.60
2018-09-28T15:13:07.680Z,0.93
2018-09-28T15:15:38.045Z,1.70
2018-09-28T15:18:08.956Z,1.37
2018-09-28T15:20:39.432Z,1.40
2018-09-28T15:23:09.960Z,0.87
2018-09-28T15:25:40.428Z,1.10
2018-09-28T15:28:11.084Z,1.30
2018-09-28T15:30:41.720Z,0.83
2018-09-28T15:33:12.276Z,1.37
2018-09-28T15:35:48.683Z,1.40
2018-09-28T15:38:19.309Z,0.90
2018-09-28T15:40:50.680Z,1.37
2018-09-28T15:43:21.157Z,0.80
2018-09-28T15:46:00.980Z,1.20
2018-09-28T15:48:32.784Z,1.10
2018-09-28T15:51:06.094Z,1.10
2018-09-28T15:53:36.556Z,1.10
2018-09-28T15:56:07.492Z,0.90
2018-09-28T15:58:38.139Z,1.57
2018-09-28T16:01:09.948Z,1.90
2018-09-28T16:03:40.391Z,1.60
2018-09-28T16:06:10.752Z,1.10
2018-09-28T16:08:42.393Z,1.23
2018-09-28T16:11:21.879Z,1.30
2018-09-28T16:16:45.361Z,1.00
2018-09-28T16:19:15.696Z,1.10
2018-09-28T16:21:46.340Z,1.40
2018-09-28T16:30:20.161Z,1.30
2018-09-28T16:32:50.671Z,1.07
2018-09-28T16:35:22.310Z,1.20
2018-09-28T16:37:53.198Z,1.27
2018-09-28T16:40:26.737Z,1.10
2018-09-28T16:43:05.498Z,1.23
2018-09-28T16:45:40.697Z,1.10
2018-09-28T16:48:50.176Z,1.30
2018-09-28T17:01:44.521Z,1.00
2018-09-28T17:05:02.039Z,1.20
2018-09-28T17:07:35.854Z,1.40
2018-09-28T17:10:11.811Z,1.13
2018-09-28T17:27:29.009Z,0.90
2018-09-28T17:29:59.297Z,1.37
2018-09-28T17:32:30.529Z,1.20
2018-09-28T17:35:01.506Z,1.10
2018-09-28T17:37:32.374Z,1.33
2018-09-28T17:40:03.230Z,1.60
2018-09-28T17:43:06.448Z,1.30
2018-09-28T17:46:18.998Z,1.23
2018-09-28T17:48:53.294Z,1.33
2018-09-28T17:51:24.690Z,1.33
2018-09-28T17:53:57.125Z,1.10
2018-09-28T17:56:28.553Z,1.30
2018-09-28T17:58:59.437Z,1.23
2018-09-28T18:02:00.108Z,1.10
2018-09-28T18:05:10.358Z,1.10
2018-09-28T18:07:43.377Z,1.17
2018-09-28T18:10:15.830Z,1.40
2018-09-28T18:15:47.481Z,1.27
2018-09-28T18:18:32.886Z,1.03
2018-09-28T18:21:40.813Z,1.07
2018-09-28T18:24:44.148Z,1.20
2018-09-28T18:27:44.895Z,1.47
2018-09-28T18:30:53.160Z,1.47
2018-09-28T18:33:53.740Z,1.20
2018-09-28T18:36:34.711Z,1.37
2018-09-28T18:39:11.543Z,1.30
2018-09-28T18:42:27.928Z,1.30
2018-09-28T18:45:52.036Z,1.20
2018-09-28T18:48:32.906Z,1.40
2018-09-28T18:51:11.632Z,1.57
2018-09-28T18:53:43.320Z,1.20
2018-09-28T18:56:15.134Z,1.50
2018-09-28T18:59:27.877Z,1.20
2018-09-28T19:05:34.663Z,1.10
2018-09-28T19:12:13.287Z,1.60
2018-09-28T19:15:35.079Z,1.30
2018-09-28T19:18:42.428Z,1.80
2018-09-28T19:21:49.679Z,1.77
2018-09-28T19:24:44.805Z,1.60
2018-09-28T19:27:15.422Z,1.40
2018-09-28T19:30:23.121Z,1.73
2018-09-28T19:33:42.133Z,1.43
2018-09-28T19:37:04.694Z,1.70
2018-09-28T19:40:17.675Z,1.90
2018-09-28T19:43:23.021Z,2.23
2018-09-28T19:49:26.333Z,1.80
2018-09-28T19:52:26.853Z,1.70
2018-09-28T19:55:39.710Z,2.00
2018-09-28T19:58:44.990Z,1.83
2018-09-28T20:01:44.342Z,1.80
2018-09-28T20:04:38.509Z,1.80
2018-09-28T20:07:28.887Z,2.07
2018-09-28T20:10:00.934Z,1.70
2018-09-28T20:12:34.598Z,1.80
2018-09-28T20:15:44.338Z,1.80
2018-09-28T20:18:44.648Z,1.80
2018-09-28T20:21:16.330Z,1.80
2018-09-28T20:23:47.779Z,1.63
2018-09-28T20:26:39.647Z,1.50
2018-09-28T20:29:50.723Z,1.97
2018-09-28T20:33:01.747Z,1.60
2018-09-28T20:36:18.489Z,1.63
2018-09-28T20:38:51.012Z,1.27
2018-09-28T20:41:22.335Z,1.77
2018-09-28T20:43:53.179Z,1.57
2018-09-28T20:46:24.379Z,1.37
2018-09-28T20:48:55.744Z,1.70
2018-09-28T20:51:27.267Z,2.00
2018-09-28T20:53:58.368Z,1.70
2018-09-28T20:56:29.433Z,1.87
2018-09-28T20:59:00.050Z,1.63
2018-09-28T21:01:30.359Z,1.60
2018-09-28T21:04:00.777Z,1.80
2018-09-28T21:06:31.315Z,1.80
2018-09-28T21:09:01.801Z,1.90
2018-09-28T21:11:57.087Z,1.80
2018-09-28T21:18:17.972Z,2.17
2018-09-28T21:21:00.292Z,1.80
2018-09-28T21:23:37.739Z,2.00
2018-09-28T21:26:33.626Z,2.03
2018-09-28T21:29:05.884Z,1.80
2018-09-28T21:31:37.327Z,1.80
2018-09-28T21:34:15.868Z,1.80
2018-09-28T21:37:10.006Z,1.43
2018-09-28T21:40:07.930Z,1.80
2018-09-28T21:43:10.371Z,1.80
2018-09-28T21:46:20.906Z,1.87
2018-09-28T21:49:36.789Z,1.53
2018-09-28T21:52:15.748Z,1.57
2018-09-28T21:54:53.803Z,1.83
2018-09-28T21:57:53.003Z,1.90
2018-09-28T22:01:11.814Z,1.57
2018-09-28T22:04:18.976Z,1.80
2018-09-28T22:07:24.095Z,1.60
2018-09-28T22:10:34.336Z,1.47
2018-09-28T22:13:52.261Z,2.13
2018-09-28T22:17:06.510Z,1.93
2018-09-28T22:20:10.141Z,1.83
2018-09-28T22:23:17.703Z,1.47
2018-09-28T22:25:48.267Z,1.60
2018-09-28T22:28:18.143Z,1.83
2018-09-28T22:30:48.093Z,1.93
2018-09-28T22:33:17.932Z,1.60
2018-09-28T22:35:47.825Z,1.80
2018-09-28T22:38:17.589Z,1.90
2018-09-28T22:40:47.328Z,1.60
2018-09-28T22:43:17.152Z,1.70
2018-09-28T22:45:46.880Z,1.67
2018-09-28T22:48:16.619Z,1.83
2018-09-28T22:50:46.534Z,1.90
2018-09-28T22:53:38.040Z,1.90
2018-09-28T22:56:44.514Z,2.20
2018-09-28T22:59:47.484Z,1.87
2018-09-28T23:02:52.877Z,1.93
2018-09-28T23:05:32.746Z,2.00
2018-09-28T23:08:04.437Z,1.73
2018-09-28T23:10:42.128Z,2.10
2018-09-28T23:13:50.673Z,1.60
2018-09-28T23:17:02.454Z,1.77
2018-09-28T23:20:13.041Z,1.60
2018-09-28T23:23:19.851Z,1.47
2018-09-28T23:25:58.351Z,1.90
2018-09-28T23:28:29.189Z,1.63
2018-09-28T23:34:12.082Z,1.77
2018-09-28T23:36:56.670Z,1.80
2018-09-28T23:39:37.468Z,1.83
2018-09-28T23:42:22.344Z,1.90
2018-09-28T23:48:07.157Z,1.77
2018-09-28T23:50:51.999Z,2.20
2018-09-28T23:53:32.118Z,1.77
2018-09-28T23:56:17.177Z,1.70
2018-09-28T23:59:00.301Z,1.90
